Time;durP1;ratioP1;P1;durP2;ratioP2;P2;SDS_P1;SDS_P2;PMS_P1;PMS_P2;Temp;Humidity;BMP_temperature;BMP_pressure;BME280_temperature;BME280_humidity;BME280_pressure;Samples;Min_cycle;Max_cycle;Signal;HPM_P1;HPM_P2
2023/06/24 00:00:37;;;;;;;9.85;7.88;;;18.70;99.90;;;;;;5074552;28;20048;-65
2023/06/24 00:03:03;;;;;;;9.77;7.80;;;18.70;99.90;;;;;;5074229;28;20123;-66
2023/06/24 00:05:33;;;;;;;9.43;7.55;;;18.60;99.90;;;;;;5074080;28;20461;-66
2023/06/24 00:08:02;;;;;;;8.30;7.45;;;18.60;99.90;;;;;;5091533;28;20426;-65
2023/06/24 00:10:29;;;;;;;8.27;6.93;;;18.60;99.90;;;;;;5074125;28;20054;-66
2023/06/24 00:12:55;;;;;;;9.15;7.80;;;18.60;99.90;;;;;;5074116;28;20468;-67
2023/06/24 00:15:21;;;;;;;8.25;7.03;;;18.60;99.90;;;;;;5057561;28;20052;-65
2023/06/24 00:17:50;;;;;;;10.68;7.85;;;18.60;99.90;;;;;;5091340;28;20051;-66
2023/06/24 00:20:17;;;;;;;9.40;8.02;;;18.50;99.90;;;;;;5074276;28;20117;-67
2023/06/24 00:22:48;;;;;;;10.10;8.65;;;18.50;99.90;;;;;;5092020;28;20423;-66
2023/06/24 00:25:15;;;;;;;9.88;8.43;;;18.50;99.90;;;;;;5092055;28;20048;-66
2023/06/24 00:27:45;;;;;;;9.50;8.35;;;18.50;99.90;;;;;;5073022;28;20464;-67
2023/06/24 00:30:12;;;;;;;11.13;8.60;;;18.40;99.90;;;;;;5040953;28;20044;-66
2023/06/24 00:32:38;;;;;;;9.98;8.25;;;18.40;99.90;;;;;;5090646;28;20048;-65
2023/06/24 00:35:05;;;;;;;9.35;7.00;;;18.40;99.90;;;;;;5091711;28;20369;-66
2023/06/24 00:37:31;;;;;;;10.60;7.75;;;18.30;99.90;;;;;;5090895;28;20425;-67
2023/06/24 00:39:57;;;;;;;11.60;8.60;;;18.30;99.90;;;;;;5073831;28;20369;-67
2023/06/24 00:42:25;;;;;;;9.52;7.97;;;18.30;99.90;;;;;;5073667;28;20447;-65
2023/06/24 00:44:53;;;;;;;10.75;8.25;;;18.30;99.90;;;;;;5074348;28;20056;-67
2023/06/24 00:47:20;;;;;;;10.32;7.75;;;18.30;99.90;;;;;;5091143;28;20058;-66
2023/06/24 00:49:46;;;;;;;9.05;7.50;;;18.30;99.90;;;;;;5091507;28;20044;-66
2023/06/24 00:52:15;;;;;;;9.10;7.47;;;18.20;99.90;;;;;;5091308;28;20051;-66
2023/06/24 00:54:44;;;;;;;10.30;8.05;;;18.30;99.90;;;;;;5091252;28;20052;-66
2023/06/24 00:57:11;;;;;;;10.60;7.78;;;18.30;99.90;;;;;;5090776;28;20052;-65
2023/06/24 00:59:39;;;;;;;9.88;8.35;;;18.30;99.90;;;;;;5091539;28;20082;-65
2023/06/24 01:02:05;;;;;;;10.88;8.85;;;18.20;99.90;;;;;;5091481;28;20071;-66
2023/06/24 01:04:33;;;;;;;12.27;7.90;;;18.20;99.90;;;;;;5091376;28;20417;-67
2023/06/24 01:07:01;;;;;;;10.07;9.05;;;18.10;99.90;;;;;;5072882;28;20048;-66
2023/06/24 01:09:27;;;;;;;10.45;9.13;;;18.10;99.90;;;;;;5091638;28;20044;-67
2023/06/24 01:11:55;;;;;;;10.75;8.98;;;18.10;99.90;;;;;;5091361;28;20453;-66
2023/06/24 01:14:23;;;;;;;10.82;8.90;;;18.10;99.90;;;;;;5057250;28;20056;-66
2023/06/24 01:17:19;;;;;;;14.15;10.40;;;18.10;99.90;;;;;;5056632;28;20456;-66
2023/06/24 01:20:11;;;;;;;12.02;10.27;;;18.10;99.90;;;;;;5073197;28;20066;-66
2023/06/24 01:23:07;;;;;;;;;;;18.00;99.90;;;;;;5057412;28;20109;-66
2023/06/24 01:25:43;;;;;;;12.82;10.23;;;18.00;99.90;;;;;;5051973;28;19935;-66
2023/06/24 01:28:31;;;;;;;12.27;10.75;;;17.90;99.90;;;;;;5070814;28;20091;-66
2023/06/24 01:31:26;;;;;;;11.48;10.30;;;17.90;99.90;;;;;;5071308;28;20040;-66
2023/06/24 01:34:44;;;;;;;14.95;11.27;;;17.90;99.90;;;;;;5070281;28;20495;-66
2023/06/24 01:37:35;;;;;;;12.68;10.13;;;17.90;99.90;;;;;;5078811;28;20161;-65
2023/06/24 01:40:26;;;;;;;13.13;10.45;;;17.80;99.90;;;;;;5091523;28;20048;-66
2023/06/24 01:42:57;;;;;;;13.85;11.38;;;17.80;99.90;;;;;;5077342;28;20063;-67
2023/06/24 01:45:33;;;;;;;15.18;11.85;;;17.60;99.90;;;;;;5095083;28;20051;-66
2023/06/24 01:48:05;;;;;;;12.55;10.95;;;17.70;99.90;;;;;;5076400;28;20040;-66
2023/06/24 01:50:33;;;;;;;14.10;11.35;;;17.70;99.90;;;;;;5094809;28;20051;-66
2023/06/24 01:53:07;;;;;;;13.27;10.80;;;17.60;99.90;;;;;;5077051;28;20377;-66
2023/06/24 01:55:37;;;;;;;11.93;10.63;;;17.60;99.90;;;;;;5076872;28;20048;-66
2023/06/24 01:58:07;;;;;;;12.90;10.82;;;17.70;99.90;;;;;;5094366;28;20345;-66
2023/06/24 02:00:35;;;;;;;12.00;10.13;;;17.60;99.90;;;;;;5094636;28;20071;-66
2023/06/24 02:03:02;;;;;;;14.90;12.10;;;17.50;99.90;;;;;;5094514;28;20051;-67
2023/06/24 02:05:31;;;;;;;13.82;11.30;;;17.50;99.90;;;;;;5076790;28;20067;-65
2023/06/24 02:07:59;;;;;;;14.73;10.18;;;17.50;99.90;;;;;;5093468;28;20051;-66
2023/06/24 02:10:28;;;;;;;15.45;10.82;;;17.50;99.90;;;;;;5094506;28;20045;-66
2023/06/24 02:12:55;;;;;;;13.05;11.38;;;17.50;99.90;;;;;;5076366;28;20047;-67
2023/06/24 02:15:23;;;;;;;12.93;11.20;;;17.50;99.90;;;;;;5094453;28;20051;-67
2023/06/24 02:17:51;;;;;;;14.27;11.30;;;17.40;99.90;;;;;;5059261;28;20539;-66
2023/06/24 02:20:21;;;;;;;13.77;10.73;;;17.40;99.90;;;;;;5059563;28;20064;-66
2023/06/24 02:22:51;;;;;;;13.15;10.48;;;17.40;99.90;;;;;;5094216;28;20056;-65
2023/06/24 02:25:25;;;;;;;16.35;11.75;;;17.40;99.90;;;;;;5077141;28;20079;-66
2023/06/24 02:27:53;;;;;;;16.13;12.13;;;17.40;99.90;;;;;;5093461;28;20062;-67
2023/06/24 02:30:21;;;;;;;15.73;12.35;;;17.30;99.90;;;;;;5094298;28;20055;-67
2023/06/24 02:32:54;;;;;;;15.93;11.43;;;17.30;99.90;;;;;;5076196;28;20048;-66
2023/06/24 02:35:20;;;;;;;13.80;12.30;;;17.20;99.90;;;;;;5059314;28;20044;-66
2023/06/24 02:37:46;;;;;;;15.50;11.35;;;17.30;99.90;;;;;;5075233;28;20048;-66
2023/06/24 02:40:13;;;;;;;15.20;12.32;;;17.30;99.90;;;;;;5076187;28;20055;-66
2023/06/24 02:42:39;;;;;;;14.98;12.68;;;17.20;99.90;;;;;;5093975;28;20044;-66
2023/06/24 02:45:06;;;;;;;15.35;12.95;;;17.20;99.90;;;;;;5059559;28;20066;-66
2023/06/24 02:47:35;;;;;;;14.15;10.73;;;17.20;99.90;;;;;;5092559;28;20048;-66
2023/06/24 02:50:04;;;;;;;14.13;12.63;;;17.20;99.90;;;;;;5093882;28;20040;-67
2023/06/24 02:52:31;;;;;;;15.82;11.90;;;17.20;99.90;;;;;;5094005;28;20040;-65
2023/06/24 02:54:58;;;;;;;15.18;12.95;;;17.20;99.90;;;;;;5058935;28;20059;-66
2023/06/24 02:57:26;;;;;;;17.42;13.57;;;17.10;99.90;;;;;;5074891;28;20048;-66
2023/06/24 02:59:52;;;;;;;17.30;11.70;;;17.10;99.90;;;;;;5075483;28;20064;-66
2023/06/24 03:02:21;;;;;;;14.88;11.70;;;17.00;99.90;;;;;;5075801;28;20048;-66
2023/06/24 03:04:50;;;;;;;15.90;12.25;;;17.10;99.90;;;;;;5076147;28;20060;-66
2023/06/24 03:07:20;;;;;;;14.75;12.48;;;17.00;99.90;;;;;;5092679;28;20052;-66
2023/06/24 03:09:46;;;;;;;16.15;12.95;;;17.00;99.90;;;;;;5093600;28;20110;-66
2023/06/24 03:12:14;;;;;;;15.23;13.20;;;16.90;99.90;;;;;;5058689;28;20059;-66
2023/06/24 03:14:40;;;;;;;14.85;12.38;;;16.90;99.90;;;;;;5093394;28;20048;-65
2023/06/24 03:17:09;;;;;;;16.63;12.32;;;16.90;99.90;;;;;;5074234;28;20056;-66
2023/06/24 03:19:35;;;;;;;15.70;11.73;;;16.90;99.90;;;;;;5093127;28;20375;-67
2023/06/24 03:22:03;;;;;;;17.77;13.15;;;16.80;99.90;;;;;;5075476;28;20048;-67
2023/06/24 03:24:30;;;;;;;16.45;12.77;;;16.80;99.90;;;;;;5059052;28;20048;-66
2023/06/24 03:26:59;;;;;;;16.55;13.10;;;16.90;99.90;;;;;;5074801;28;20044;-66
2023/06/24 03:29:25;;;;;;;13.52;12.02;;;16.70;99.90;;;;;;5093085;28;20052;-65
2023/06/24 03:31:51;;;;;;;15.13;12.13;;;16.80;99.90;;;;;;5093029;28;20048;-66
2023/06/24 03:34:18;;;;;;;18.15;12.25;;;16.80;99.90;;;;;;5092453;28;20056;-66
2023/06/24 03:36:45;;;;;;;14.80;12.60;;;16.70;99.90;;;;;;5065590;28;20052;-65
2023/06/24 03:39:16;;;;;;;15.75;11.52;;;16.80;99.90;;;;;;5055779;28;20053;-67
2023/06/24 03:41:42;;;;;;;16.05;13.05;;;16.80;99.90;;;;;;5038707;28;20055;-67
2023/06/24 03:44:08;;;;;;;16.40;13.07;;;16.80;99.90;;;;;;5038274;28;20486;-66
2023/06/24 03:46:35;;;;;;;15.18;11.68;;;16.80;99.90;;;;;;5072407;28;20045;-65
2023/06/24 03:49:01;;;;;;;15.65;12.65;;;16.80;99.90;;;;;;5054890;28;20048;-66
2023/06/24 03:51:27;;;;;;;16.20;13.43;;;16.80;99.90;;;;;;5072349;28;20049;-66
2023/06/24 03:53:54;;;;;;;15.90;13.23;;;16.90;99.90;;;;;;5072301;28;20049;-66
2023/06/24 03:56:20;;;;;;;14.98;13.38;;;16.90;99.90;;;;;;5075506;28;20425;-66
2023/06/24 03:58:46;;;;;;;15.57;12.75;;;17.00;99.90;;;;;;5057993;28;20452;-65
2023/06/24 04:01:14;;;;;;;17.38;13.80;;;17.00;99.90;;;;;;5074282;28;20475;-67
2023/06/24 04:03:40;;;;;;;17.02;12.98;;;17.10;99.90;;;;;;5074954;28;20067;-65
2023/06/24 04:06:06;;;;;;;16.00;12.13;;;17.00;99.90;;;;;;5088867;28;20044;-66
2023/06/24 04:08:33;;;;;;;15.48;13.38;;;17.10;99.90;;;;;;5072038;28;20052;-66
2023/06/24 04:11:06;;;;;;;16.17;12.63;;;17.10;99.90;;;;;;5071917;28;20457;-66
2023/06/24 04:13:34;;;;;;;14.27;12.57;;;17.10;99.90;;;;;;5054388;28;20052;-66
2023/06/24 04:16:01;;;;;;;14.63;11.98;;;17.10;99.90;;;;;;5072850;28;20041;-66
2023/06/24 04:18:28;;;;;;;16.23;13.48;;;17.20;99.90;;;;;;5092277;28;20108;-66
2023/06/24 04:20:57;;;;;;;16.40;13.30;;;17.30;99.90;;;;;;5092024;28;20056;-65
2023/06/24 04:23:24;;;;;;;17.52;13.65;;;17.30;99.90;;;;;;5058289;28;20431;-67
2023/06/24 04:25:54;;;;;;;18.13;13.82;;;17.30;99.90;;;;;;5090590;28;20048;-66
2023/06/24 04:28:22;;;;;;;17.08;13.55;;;17.30;99.90;;;;;;5071765;28;20049;-66
2023/06/24 04:30:48;;;;;;;15.55;13.25;;;17.30;99.90;;;;;;5054032;28;20401;-66
2023/06/24 04:33:14;;;;;;;15.82;12.35;;;17.40;99.90;;;;;;5063739;28;20047;-67
2023/06/24 04:35:44;;;;;;;15.00;12.85;;;17.30;99.90;;;;;;5073323;28;20136;-66
2023/06/24 04:38:11;;;;;;;16.65;12.68;;;17.40;99.90;;;;;;5057612;28;20044;-66
2023/06/24 04:40:37;;;;;;;18.15;13.63;;;17.50;99.90;;;;;;5091917;28;20052;-67
2023/06/24 04:43:04;;;;;;;17.33;13.93;;;17.40;99.90;;;;;;5091906;28;20043;-65
2023/06/24 04:45:30;;;;;;;15.73;13.30;;;17.50;99.90;;;;;;5091327;28;20113;-67
2023/06/24 04:47:56;;;;;;;16.55;13.48;;;17.50;99.90;;;;;;5053493;28;20052;-67
2023/06/24 04:50:22;;;;;;;14.98;12.02;;;17.60;99.90;;;;;;5053603;28;20368;-67
2023/06/24 04:52:54;;;;;;;14.68;11.43;;;17.70;99.90;;;;;;5071543;28;20127;-67
2023/06/24 04:55:22;;;;;;;17.33;12.23;;;17.80;99.90;;;;;;5053074;28;20044;-67
2023/06/24 04:57:52;;;;;;;15.60;13.02;;;18.00;99.90;;;;;;5070347;28;20063;-66
2023/06/24 05:00:23;;;;;;;16.98;13.63;;;18.40;99.90;;;;;;5058080;28;20048;-66
2023/06/24 05:02:49;;;;;;;17.30;12.35;;;19.40;99.90;;;;;;5057100;28;20060;-66
2023/06/24 05:05:15;;;;;;;14.18;12.32;;;20.10;99.90;;;;;;5091109;28;20512;-67
2023/06/24 05:07:41;;;;;;;13.80;12.35;;;20.90;99.90;;;;;;5073352;28;20048;-66
2023/06/24 05:10:08;;;;;;;16.48;13.13;;;21.70;99.90;;;;;;5091489;28;20048;-66
2023/06/24 05:12:34;;;;;;;15.20;13.23;;;22.40;99.90;;;;;;5091402;28;20083;-67
2023/06/24 05:15:00;;;;;;;14.55;12.90;;;22.80;99.90;;;;;;5091516;28;20055;-68
2023/06/24 05:17:26;;;;;;;14.73;12.32;;;23.30;99.90;;;;;;5091196;28;20055;-67
2023/06/24 05:19:52;;;;;;;14.60;12.27;;;23.60;99.90;;;;;;5059773;28;20415;-67
2023/06/24 05:22:19;;;;;;;14.40;12.73;;;24.00;99.90;;;;;;5077832;28;20055;-68
2023/06/24 05:24:46;;;;;;;14.07;12.57;;;24.10;99.90;;;;;;5077493;28;20052;-67
2023/06/24 05:27:12;;;;;;;14.68;13.13;;;24.50;99.90;;;;;;5054971;28;20040;-66
2023/06/24 05:29:39;;;;;;;15.93;12.85;;;24.60;99.90;;;;;;5067645;28;20060;-67
2023/06/24 05:32:07;;;;;;;13.60;11.20;;;24.90;99.90;;;;;;5082278;28;20439;-68
2023/06/24 05:34:34;;;;;;;15.05;13.45;;;25.40;99.90;;;;;;5047530;28;20132;-68
2023/06/24 05:37:02;;;;;;;13.95;12.45;;;25.50;99.90;;;;;;5032721;28;20040;-67
2023/06/24 05:39:29;;;;;;;14.77;13.27;;;25.80;99.90;;;;;;5046470;28;20048;-67
2023/06/24 05:41:55;;;;;;;15.27;13.48;;;25.70;99.90;;;;;;5064070;28;20045;-66
2023/06/24 05:44:23;;;;;;;16.13;13.63;;;25.70;99.90;;;;;;5046363;28;20453;-66
2023/06/24 05:46:49;;;;;;;13.60;12.27;;;25.90;99.90;;;;;;5032468;28;20041;-67
2023/06/24 05:49:16;;;;;;;14.02;12.63;;;26.20;99.90;;;;;;5046076;28;20041;-67
2023/06/24 05:51:42;;;;;;;15.85;13.43;;;26.70;99.90;;;;;;5046313;28;20110;-67
2023/06/24 05:54:11;;;;;;;13.88;12.43;;;27.10;99.90;;;;;;5065178;28;20045;-67
2023/06/24 05:56:37;;;;;;;14.55;12.82;;;27.20;99.90;;;;;;5064771;28;20047;-69
2023/06/24 05:59:05;;;;;;;14.18;12.32;;;27.60;99.90;;;;;;5030333;28;20485;-67
2023/06/24 06:01:33;;;;;;;14.13;12.25;;;27.70;99.60;;;;;;5052192;28;20071;-69
2023/06/24 06:04:03;;;;;;;12.15;10.93;;;27.70;99.30;;;;;;5057734;28;20045;-69
2023/06/24 06:06:29;;;;;;;13.90;12.50;;;27.80;99.20;;;;;;5074247;28;20051;-67
2023/06/24 06:09:00;;;;;;;14.88;12.43;;;27.80;99.20;;;;;;5074674;28;20056;-67
2023/06/24 06:11:27;;;;;;;14.65;11.40;;;28.00;99.30;;;;;;5056971;28;20600;-66
2023/06/24 06:13:53;;;;;;;14.25;12.13;;;28.40;99.10;;;;;;5056750;28;20432;-67
2023/06/24 06:16:20;;;;;;;16.85;12.55;;;28.20;98.80;;;;;;5073356;28;20469;-67
2023/06/24 06:18:47;;;;;;;14.20;11.38;;;28.40;98.50;;;;;;5056402;28;20477;-67
2023/06/24 06:21:15;;;;;;;13.45;12.05;;;28.60;97.50;;;;;;5074026;28;20048;-67
2023/06/24 06:23:41;;;;;;;13.93;12.48;;;28.70;98.10;;;;;;5040294;28;20053;-66
2023/06/24 06:26:09;;;;;;;13.95;11.98;;;29.00;98.20;;;;;;5067581;28;20091;-68
2023/06/24 06:28:35;;;;;;;13.57;10.98;;;29.50;98.00;;;;;;5044847;28;20369;-63
2023/06/24 06:31:01;;;;;;;12.75;11.43;;;29.50;97.40;;;;;;5055827;28;20084;-68
2023/06/24 06:33:27;;;;;;;12.27;11.15;;;28.90;97.00;;;;;;5053673;28;20048;-67
2023/06/24 06:35:54;;;;;;;12.52;11.13;;;28.20;98.00;;;;;;5053251;28;20103;-67
2023/06/24 06:38:20;;;;;;;13.40;11.45;;;28.00;98.90;;;;;;5073596;28;20057;-67
2023/06/24 06:40:49;;;;;;;12.88;11.48;;;28.20;98.20;;;;;;5073730;28;20358;-67
2023/06/24 06:43:15;;;;;;;15.02;12.40;;;28.60;98.50;;;;;;5056010;28;20461;-67
2023/06/24 06:45:42;;;;;;;12.77;11.15;;;29.30;98.20;;;;;;5073377;28;20056;-67
2023/06/24 06:48:11;;;;;;;13.23;11.27;;;29.50;97.30;;;;;;5055438;28;20044;-67
2023/06/24 06:50:40;;;;;;;12.60;11.13;;;29.90;97.30;;;;;;5073598;28;20040;-69
2023/06/24 06:53:06;;;;;;;11.18;10.02;;;30.30;97.00;;;;;;5073707;28;20048;-67
2023/06/24 06:55:33;;;;;;;12.10;10.45;;;30.10;96.70;;;;;;5073534;28;20055;-67
2023/06/24 06:58:03;;;;;;;9.80;8.50;;;29.50;97.00;;;;;;5055909;28;20452;-68
2023/06/24 07:00:29;;;;;;;10.38;9.27;;;28.30;97.40;;;;;;5050665;28;20493;-67
2023/06/24 07:02:55;;;;;;;9.73;8.68;;;27.50;98.20;;;;;;5063925;28;20076;-67
2023/06/24 07:05:54;;;;;;;9.40;8.50;;;26.90;98.50;;;;;;5054843;28;20063;-68
2023/06/24 07:08:20;;;;;;;8.73;7.60;;;26.80;98.40;;;;;;5069162;28;20053;-67
2023/06/24 07:10:49;;;;;;;8.40;7.50;;;26.90;98.40;;;;;;5053158;28;20049;-67
2023/06/24 07:13:23;;;;;;;8.85;6.65;;;26.80;98.10;;;;;;5039131;28;20051;-67
2023/06/24 07:15:49;;;;;;;8.45;7.60;;;26.90;98.00;;;;;;5060506;28;20051;-68
2023/06/24 07:18:15;;;;;;;8.57;7.65;;;26.90;97.90;;;;;;5062523;28;20056;-68
2023/06/24 07:20:43;;;;;;;11.00;7.63;;;27.00;98.00;;;;;;5060592;28;20419;-68
2023/06/24 07:23:10;;;;;;;10.80;7.32;;;27.10;97.60;;;;;;5045277;28;20045;-68
2023/06/24 07:25:38;;;;;;;9.10;7.70;;;27.20;97.50;;;;;;5044192;28;20107;-68
2023/06/24 07:28:05;;;;;;;9.23;8.15;;;27.10;97.50;;;;;;5062965;28;20041;-68
2023/06/24 07:30:31;;;;;;;9.77;7.43;;;27.30;97.70;;;;;;5035419;28;20060;-67
2023/06/24 07:32:57;;;;;;;10.75;7.82;;;27.10;97.70;;;;;;5042237;28;20055;-67
2023/06/24 07:35:23;;;;;;;10.48;7.82;;;26.90;97.90;;;;;;5053950;28;20056;-67
2023/06/24 07:37:52;;;;;;;12.05;8.45;;;26.70;98.20;;;;;;5088287;28;20058;-68
2023/06/24 07:40:19;;;;;;;8.45;7.65;;;26.40;98.60;;;;;;5074613;28;20063;-67
2023/06/24 07:42:45;;;;;;;8.70;7.60;;;26.20;98.80;;;;;;5092578;28;20056;-67
2023/06/24 07:45:11;;;;;;;10.35;8.32;;;26.10;99.00;;;;;;5074411;28;20044;-65
2023/06/24 07:47:38;;;;;;;10.40;8.77;;;25.80;99.20;;;;;;5049347;28;20048;-66
2023/06/24 07:50:06;;;;;;;10.00;8.38;;;25.60;99.70;;;;;;5072390;28;20048;-66
2023/06/24 07:52:32;;;;;;;12.00;8.63;;;25.60;99.60;;;;;;5071918;28;20357;-65
2023/06/24 07:54:58;;;;;;;9.57;7.65;;;25.80;99.70;;;;;;5072531;28;20040;-63
2023/06/24 07:57:26;;;;;;;9.65;7.45;;;25.90;99.30;;;;;;5084122;28;20048;-65
2023/06/24 07:59:54;;;;;;;11.15;8.48;;;26.00;99.00;;;;;;5088151;28;20055;-66
2023/06/24 08:02:20;;;;;;;10.82;8.43;;;26.00;99.20;;;;;;5081326;28;20045;-67
2023/06/24 08:04:47;;;;;;;9.57;7.72;;;26.10;99.10;;;;;;5062335;28;20517;-66
2023/06/24 08:07:16;;;;;;;9.57;7.93;;;26.30;99.10;;;;;;5060064;28;20457;-65
2023/06/24 08:09:47;;;;;;;9.13;7.43;;;26.50;98.60;;;;;;5079593;28;20044;-65
2023/06/24 08:12:13;;;;;;;8.48;7.22;;;26.40;98.60;;;;;;5048008;28;20047;-66
2023/06/24 08:14:39;;;;;;;7.93;7.13;;;26.60;98.50;;;;;;5080712;28;20048;-66
2023/06/24 08:17:05;;;;;;;8.70;6.70;;;26.80;98.40;;;;;;5056763;28;20040;-65
2023/06/24 08:19:34;;;;;;;8.60;6.90;;;26.90;98.20;;;;;;5057827;28;20303;-66
2023/06/24 08:22:00;;;;;;;7.88;7.07;;;26.90;98.10;;;;;;5092066;28;20185;-66
2023/06/24 08:24:26;;;;;;;8.05;6.85;;;27.00;97.90;;;;;;5092176;28;20051;-65
2023/06/24 08:26:53;;;;;;;7.93;6.20;;;27.20;97.80;;;;;;5073132;28;20399;-66
2023/06/24 08:29:21;;;;;;;10.10;6.75;;;27.10;97.60;;;;;;5073808;28;20126;-66
2023/06/24 08:31:47;;;;;;;7.85;6.60;;;26.80;97.40;;;;;;5092060;28;20044;-65
2023/06/24 08:34:14;;;;;;;7.72;6.68;;;26.90;97.60;;;;;;5073307;28;20044;-66
2023/06/24 08:36:40;;;;;;;7.35;6.07;;;27.10;97.10;;;;;;5052875;28;20041;-67
2023/06/24 08:39:07;;;;;;;8.63;6.18;;;27.30;97.20;;;;;;5071691;28;20491;-67
2023/06/24 08:41:34;;;;;;;8.32;6.00;;;27.20;97.00;;;;;;5070023;28;20118;-66
2023/06/24 08:44:00;;;;;;;6.20;4.72;;;27.30;96.80;;;;;;5037827;28;20059;-66
2023/06/24 08:46:27;;;;;;;7.32;5.00;;;27.30;96.40;;;;;;5036484;28;20386;-66
2023/06/24 08:49:17;;;;;;;5.82;4.93;;;27.30;96.30;;;;;;5053638;28;20048;-66
2023/06/24 08:51:46;;;;;;;5.50;4.60;;;27.30;96.10;;;;;;5039671;28;20106;-66
2023/06/24 08:54:15;;;;;;;6.07;4.63;;;27.20;96.00;;;;;;5036584;28;20362;-66
2023/06/24 08:56:43;;;;;;;7.60;4.72;;;27.40;95.80;;;;;;5033337;28;20373;-66
2023/06/24 08:59:09;;;;;;;5.05;4.50;;;27.40;95.80;;;;;;5014651;28;20057;-67
2023/06/24 09:01:37;;;;;;;6.78;4.80;;;27.30;95.80;;;;;;5016952;28;20052;-67
2023/06/24 09:04:06;;;;;;;6.22;5.30;;;27.30;95.80;;;;;;5033837;28;20049;-65
2023/06/24 09:06:33;;;;;;;7.10;5.95;;;27.60;95.90;;;;;;5045231;28;20076;-66
2023/06/24 09:09:04;;;;;;;6.75;5.82;;;27.50;96.10;;;;;;5071454;28;20079;-67
2023/06/24 09:11:32;;;;;;;8.82;5.13;;;27.20;96.00;;;;;;5071609;28;20241;-67
2023/06/24 09:14:02;;;;;;;9.23;5.72;;;27.00;96.40;;;;;;5033071;28;20045;-66
2023/06/24 09:16:29;;;;;;;8.13;5.10;;;26.80;96.30;;;;;;5054088;28;20051;-65
2023/06/24 09:18:55;;;;;;;5.50;4.88;;;26.70;96.40;;;;;;5053943;28;20052;-67
2023/06/24 09:21:26;;;;;;;6.55;5.28;;;26.80;96.60;;;;;;5053226;28;20358;-65
2023/06/24 09:23:55;;;;;;;7.22;5.60;;;26.80;96.40;;;;;;5053827;28;20052;-65
2023/06/24 09:26:25;;;;;;;7.43;6.22;;;27.20;96.40;;;;;;5052512;28;20143;-66
2023/06/24 09:28:52;;;;;;;8.93;6.43;;;27.20;96.40;;;;;;5070516;28;20272;-66
2023/06/24 09:31:19;;;;;;;8.82;5.82;;;27.30;96.60;;;;;;5053142;28;20048;-66
2023/06/24 09:33:47;;;;;;;9.25;6.72;;;27.50;96.70;;;;;;5067322;28;20044;-67
2023/06/24 09:36:15;;;;;;;8.35;6.25;;;27.10;96.70;;;;;;5090437;28;20044;-66
2023/06/24 09:38:44;;;;;;;9.35;6.13;;;27.10;96.80;;;;;;5091334;28;20052;-67
2023/06/24 09:41:15;;;;;;;7.32;6.35;;;27.20;96.80;;;;;;5073390;28;20356;-65
2023/06/24 09:43:44;;;;;;;8.27;5.88;;;27.20;96.50;;;;;;5057526;28;20060;-67
2023/06/24 09:46:11;;;;;;;6.57;5.22;;;27.30;96.50;;;;;;5055927;28;20052;-66
2023/06/24 09:48:38;;;;;;;8.32;5.50;;;27.40;96.20;;;;;;5049674;28;20079;-67
2023/06/24 09:51:08;;;;;;;9.07;6.72;;;27.70;96.00;;;;;;5049662;28;20056;-65
2023/06/24 09:53:35;;;;;;;7.20;6.05;;;27.60;95.90;;;;;;5036728;28;20059;-67
2023/06/24 09:56:03;;;;;;;7.38;6.07;;;27.60;96.20;;;;;;5070533;28;20044;-68
2023/06/24 09:58:32;;;;;;;10.73;6.90;;;27.60;96.20;;;;;;5072954;28;20407;-67
2023/06/24 10:01:04;;;;;;;8.20;6.47;;;27.90;96.10;;;;;;5091179;28;20052;-65
2023/06/24 10:03:38;;;;;;;7.72;6.47;;;27.80;96.00;;;;;;5057365;28;20066;-66
2023/06/24 10:06:06;;;;;;;7.78;6.53;;;27.40;96.20;;;;;;5093710;28;20052;-66
2023/06/24 10:08:33;;;;;;;9.07;6.90;;;27.50;96.30;;;;;;5087168;28;20052;-66
2023/06/24 10:11:02;;;;;;;9.35;7.05;;;27.50;96.30;;;;;;5075079;28;20066;-66
2023/06/24 10:13:28;;;;;;;8.48;7.43;;;27.60;96.50;;;;;;5064803;28;20051;-66
2023/06/24 10:15:56;;;;;;;9.38;8.02;;;27.70;96.40;;;;;;5079049;28;20049;-67
2023/06/24 10:18:39;;;;;;;9.10;6.88;;;27.60;96.30;;;;;;5075272;28;20059;-65
2023/06/24 10:21:08;;;;;;;8.13;6.10;;;27.60;96.40;;;;;;5076322;28;20052;-66
2023/06/24 10:23:47;;;;;;;7.85;6.88;;;27.90;96.50;;;;;;5094511;28;20122;-67
2023/06/24 10:26:29;;;;;;;10.07;6.60;;;28.10;96.50;;;;;;5093460;28;20047;-67
2023/06/24 10:29:08;;;;;;;9.30;5.45;;;28.10;96.20;;;;;;5048285;28;20067;-67
2023/06/24 10:31:41;;;;;;;7.28;6.35;;;28.20;95.90;;;;;;5067003;28;20048;-68
2023/06/24 10:34:25;;;;;;;7.35;6.10;;;28.10;95.80;;;;;;5056218;28;20465;-68
2023/06/24 10:37:08;;;;;;;6.22;5.32;;;28.20;96.00;;;;;;5079262;28;20062;-68
2023/06/24 10:39:54;;;;;;;8.38;5.65;;;28.20;95.30;;;;;;5094232;28;20056;-67
2023/06/24 10:42:43;;;;;;;9.10;6.07;;;28.10;95.40;;;;;;5094031;28;20075;-66
2023/06/24 10:45:09;;;;;;;7.95;5.50;;;28.00;95.50;;;;;;5051326;28;20047;-67
2023/06/24 10:47:43;;;;;;;7.43;5.93;;;28.10;95.30;;;;;;5058819;28;20503;-64
2023/06/24 10:50:12;;;;;;;8.02;6.47;;;28.20;95.10;;;;;;5074763;28;20350;-66
2023/06/24 10:52:40;;;;;;;7.45;6.60;;;27.90;95.20;;;;;;5055930;28;20127;-66
2023/06/24 10:55:07;;;;;;;7.60;6.03;;;28.10;95.40;;;;;;5055472;28;20052;-66
2023/06/24 10:57:33;;;;;;;7.43;6.10;;;28.10;95.60;;;;;;5067599;28;20044;-67
2023/06/24 11:00:03;;;;;;;6.93;6.00;;;27.90;95.50;;;;;;5076151;28;20538;-66
2023/06/24 11:02:29;;;;;;;8.00;5.72;;;28.00;95.40;;;;;;5093666;28;20125;-67
2023/06/24 11:05:00;;;;;;;9.52;7.00;;;27.90;95.40;;;;;;5087958;28;20380;-67
2023/06/24 11:07:30;;;;;;;9.80;7.70;;;27.90;95.50;;;;;;5061680;28;20052;-67
2023/06/24 11:10:15;;;;;;;8.50;7.60;;;27.70;96.00;;;;;;5083005;28;20098;-67
2023/06/24 11:12:43;;;;;;;8.60;6.63;;;27.90;96.10;;;;;;5090988;28;20048;-67
2023/06/24 11:15:12;;;;;;;8.55;6.80;;;27.80;96.20;;;;;;5092914;28;20051;-66
2023/06/24 11:17:39;;;;;;;7.32;6.18;;;27.70;96.00;;;;;;5092452;28;20055;-67
2023/06/24 11:20:13;;;;;;;7.88;6.70;;;27.70;96.50;;;;;;5075189;28;20143;-67
2023/06/24 11:22:41;;;;;;;8.35;5.55;;;27.70;96.20;;;;;;5093067;28;20460;-66
2023/06/24 11:25:25;;;;;;;7.88;6.05;;;27.90;96.00;;;;;;5058201;28;20105;-67
2023/06/24 11:27:54;;;;;;;7.75;6.88;;;28.10;95.80;;;;;;5089503;28;20052;-67
2023/06/24 11:30:20;;;;;;;7.68;6.35;;;28.10;95.70;;;;;;5069714;28;20390;-68
2023/06/24 11:32:50;;;;;;;7.53;6.03;;;28.10;95.80;;;;;;5068923;28;20044;-67
2023/06/24 11:35:16;;;;;;;8.48;7.03;;;28.00;95.80;;;;;;5064241;28;20562;-68
2023/06/24 11:37:45;;;;;;;7.00;6.25;;;28.00;95.80;;;;;;5067615;28;20155;-66
2023/06/24 11:40:18;;;;;;;7.40;5.60;;;27.90;95.90;;;;;;5074906;28;20048;-67
2023/06/24 11:42:44;;;;;;;6.28;5.20;;;27.90;95.40;;;;;;5083631;28;20370;-67
2023/06/24 11:45:12;;;;;;;7.70;5.68;;;28.00;95.70;;;;;;5082205;28;20392;-66
2023/06/24 11:47:40;;;;;;;8.73;6.70;;;28.10;95.80;;;;;;5064990;28;20380;-68
2023/06/24 11:50:07;;;;;;;10.27;6.72;;;28.30;95.80;;;;;;5092270;28;20040;-67
2023/06/24 11:52:48;;;;;;;9.20;5.90;;;28.20;95.70;;;;;;5074493;28;20047;-68
2023/06/24 11:55:18;;;;;;;7.18;5.43;;;28.10;95.80;;;;;;5074623;28;20054;-67
2023/06/24 11:58:04;;;;;;;7.43;5.50;;;28.00;95.90;;;;;;5074452;28;20353;-68
2023/06/24 12:00:34;;;;;;;8.48;5.43;;;28.10;95.80;;;;;;5092735;28;20113;-68
2023/06/24 12:03:02;;;;;;;6.68;4.30;;;28.40;95.40;;;;;;5092127;28;20428;-66
2023/06/24 12:05:31;;;;;;;5.97;4.72;;;28.40;95.20;;;;;;5074189;28;20043;-66
2023/06/24 12:08:01;;;;;;;6.55;5.10;;;28.30;94.70;;;;;;5067944;28;20052;-65
2023/06/24 12:10:28;;;;;;;6.45;5.03;;;28.20;94.70;;;;;;5074371;28;20071;-66
2023/06/24 12:12:57;;;;;;;7.13;5.53;;;28.20;95.20;;;;;;5092340;28;20044;-65
2023/06/24 12:15:24;;;;;;;7.00;5.82;;;28.00;95.60;;;;;;5091675;28;20048;-67
2023/06/24 12:17:50;;;;;;;5.93;4.95;;;27.90;95.90;;;;;;5091963;28;20055;-66
2023/06/24 12:20:17;;;;;;;7.57;5.53;;;27.70;95.80;;;;;;5091772;28;20411;-68
2023/06/24 12:22:48;;;;;;;9.82;5.57;;;27.70;95.90;;;;;;5074288;28;20053;-66
2023/06/24 12:25:16;;;;;;;7.30;5.40;;;27.60;96.10;;;;;;5091397;28;20518;-67
2023/06/24 12:27:43;;;;;;;8.38;5.05;;;27.60;96.20;;;;;;5073462;28;20539;-67
2023/06/24 12:30:11;;;;;;;8.75;4.97;;;27.60;95.90;;;;;;5091260;28;20326;-66
2023/06/24 12:32:38;;;;;;;5.95;5.22;;;27.60;95.80;;;;;;5091754;28;20063;-67
2023/06/24 12:35:05;;;;;;;7.03;4.55;;;27.60;95.70;;;;;;5091430;28;20702;-66
2023/06/24 12:37:32;;;;;;;7.07;5.22;;;27.80;95.60;;;;;;5073475;28;20078;-67
2023/06/24 12:40:06;;;;;;;5.40;4.50;;;27.80;95.00;;;;;;5091936;28;20052;-66
2023/06/24 12:42:32;;;;;;;5.47;4.35;;;28.00;94.30;;;;;;5073636;28;20440;-66
2023/06/24 12:45:00;;;;;;;7.20;4.80;;;28.20;94.80;;;;;;5091518;28;20044;-66
2023/06/24 12:47:26;;;;;;;5.53;4.90;;;28.30;94.80;;;;;;5073766;28;20081;-66